Huvudsida
METAR-TAF:

METAR-TAF

Flygplatser :

Luleå, Sverige

Luleå Airport

latitud: 65-33N, longitud: 022-08E, höjd: 17 m

Aktuellt väderrapport

Denna rapport gjordes för 15 minuter sedan, klockan 22:50 UTC
Vind 2 kt från nord/nordväst
Temperatur -3°C
Fuktighet 86%
Tryck 1021 hPa
Sikt 10 km eller mer

METAR: ESPA 212250Z AUTO 34002KT 9999 NCD M03/M05 Q1021

Tid: 01:05 (23:05 UTC)

Väderprognos

Denna rapport gjordes för 8 timmar och 35 minuter sedan, klockan 14:30 UTC
Prognos gäller från 21 kl. 15 UTC till 21 kl. 19 UTC
Vind 5 kt från väst/nordväst
Sikt 10 km eller mer
Inga moln under 1 500 m eller inga cumulonimbus

TAF: ESPA 211430Z 2115/2119 30005KT CAVOK

Aktuella väderrapporter och prognoser från 4000 flygplatser (METAR- och TAF-rapporter).

De tillgängliga stationerna syns som gula och röda prickar på kartan.

För musen över prickarna för att se namnen på stationerna.

Klicka sedan för att få väderrapporter och prognoser.

För att ändra kartan: Klicka på de gröna knapparna med ett svart kors på för att zooma in; den gröna knappen med ett streck på för att zooma ut; eller på de gröna pilarna för angränsande kartor.


METAR-TAF: